Time;durP1;ratioP1;P1;durP2;ratioP2;P2;SDS_P1;SDS_P2;PMS_P1;PMS_P2;Temp;Humidity;BMP_temperature;BMP_pressure;BME280_temperature;BME280_humidity;BME280_pressure;Samples;Min_cycle;Max_cycle;Signal;HPM_P1;HPM_P2
2022/04/18 00:00:37;;;;;;;0.07;0.07;;;;;;;;;;4959763;28;20161;-86
2022/04/18 00:03:04;;;;;;;0.10;0.10;;;;;;;;;;4950852;28;20038;-87
2022/04/18 00:05:31;;;;;;;0.10;0.10;;;;;;;;;;4948869;28;20027;-86
2022/04/18 00:07:57;;;;;;;0.20;0.20;;;;;;;;;;4949132;28;20114;-87
2022/04/18 00:10:23;;;;;;;0.63;0.20;;;;;;;;;;4948420;28;20748;-86
2022/04/18 00:12:50;;;;;;;0.10;0.10;;;;;;;;;;4944098;28;20287;-85
2022/04/18 00:15:16;;;;;;;0.17;0.17;;;;;;;;;;4966842;28;20034;-87
2022/04/18 00:17:43;;;;;;;0.47;0.47;;;;;;;;;;4950073;28;20083;-85
2022/04/18 00:20:09;;;;;;;;;;;;;;;;;;4947016;28;20047;-86
2022/04/18 00:22:36;;;;;;;0.25;0.25;;;;;;;;;;4948189;28;19945;-85
2022/04/18 00:25:02;;;;;;;0.77;0.27;;;;;;;;;;4945522;28;20031;-85
2022/04/18 00:27:28;;;;;;;0.32;0.32;;;;;;;;;;4947752;28;20042;-85
2022/04/18 00:29:54;;;;;;;0.13;0.13;;;;;;;;;;4949400;28;20035;-86
2022/04/18 00:32:20;;;;;;;0.10;0.10;;;;;;;;;;4947875;28;20063;-86
2022/04/18 00:34:46;;;;;;;0.38;0.38;;;;;;;;;;4947938;28;20046;-87
2022/04/18 00:37:12;;;;;;;5.33;2.07;;;;;;;;;;4943840;28;20030;-88
2022/04/18 00:39:38;;;;;;;0.03;0.03;;;;;;;;;;4958988;28;20706;-86
2022/04/18 00:42:04;;;;;;;0.10;0.10;;;;;;;;;;4946034;28;20039;-86
2022/04/18 00:44:30;;;;;;;0.10;0.10;;;;;;;;;;4949214;28;20066;-88
2022/04/18 00:46:56;;;;;;;0.33;0.33;;;;;;;;;;4947776;28;20034;-88
2022/04/18 00:49:22;;;;;;;0.00;0.00;;;;;;;;;;4947955;28;20034;-87
2022/04/18 00:51:49;;;;;;;0.20;0.20;;;;;;;;;;4942942;29;20038;-87
2022/04/18 00:54:15;;;;;;;0.55;0.40;;;;;;;;;;4958027;28;20415;-87
2022/04/18 00:56:41;;;;;;;0.37;0.23;;;;;;;;;;4948937;28;20039;-86
2022/04/18 00:59:07;;;;;;;5.50;1.17;;;;;;;;;;4946448;28;20043;-87
2022/04/18 01:01:33;;;;;;;0.98;0.52;;;;;;;;;;4947158;28;20034;-87
2022/04/18 01:04:00;;;;;;;0.20;0.20;;;;;;;;;;4946661;28;20500;-88
2022/04/18 01:06:26;;;;;;;0.33;0.33;;;;;;;;;;4947902;28;20073;-87
2022/04/18 01:08:52;;;;;;;0.10;0.10;;;;;;;;;;4943312;28;20337;-87
2022/04/18 01:11:18;;;;;;;0.10;0.10;;;;;;;;;;4951027;28;20047;-86
2022/04/18 01:13:45;;;;;;;0.10;0.10;;;;;;;;;;4941900;28;20070;-85
2022/04/18 01:16:12;;;;;;;0.00;0.00;;;;;;;;;;4957993;28;20038;-86
2022/04/18 01:18:38;;;;;;;0.20;0.20;;;;;;;;;;4943237;28;20753;-86
2022/04/18 01:21:05;;;;;;;0.17;0.17;;;;;;;;;;4951955;28;20035;-85
2022/04/18 01:23:31;;;;;;;0.00;0.00;;;;;;;;;;4948429;28;20039;-86
2022/04/18 01:31:27;;;;;;;0.00;0.00;;;;;;;;;;4946910;28;20045;-87
2022/04/18 01:33:53;;;;;;;0.10;0.10;;;;;;;;;;4943404;28;20036;-87
2022/04/18 01:36:19;;;;;;;0.00;0.00;;;;;;;;;;4948783;28;20039;-88
2022/04/18 01:38:45;;;;;;;1.67;0.85;;;;;;;;;;4955589;28;20031;-87
2022/04/18 01:41:11;;;;;;;0.10;0.10;;;;;;;;;;4950482;28;20074;-87
2022/04/18 01:43:37;;;;;;;0.00;0.00;;;;;;;;;;4948076;28;20086;-86
2022/04/18 01:46:03;;;;;;;0.45;0.20;;;;;;;;;;4945674;28;20563;-85
2022/04/18 01:48:30;;;;;;;0.10;0.10;;;;;;;;;;4943202;28;20022;-84
2022/04/18 01:50:56;;;;;;;0.37;0.37;;;;;;;;;;4947728;28;20844;-85
2022/04/18 01:53:23;;;;;;;0.13;0.13;;;;;;;;;;4946328;28;20031;-86
2022/04/18 01:55:48;;;;;;;;;;;;;;;;;;4946648;28;20035;-85
2022/04/18 01:58:14;;;;;;;0.40;0.40;;;;;;;;;;4945837;28;19926;-84
2022/04/18 02:00:40;;;;;;;0.00;0.00;;;;;;;;;;4943481;28;20110;-85
2022/04/18 02:03:06;;;;;;;0.23;0.23;;;;;;;;;;4948323;28;20031;-84
2022/04/18 02:05:33;;;;;;;0.10;0.10;;;;;;;;;;4946244;28;20042;-84
2022/04/18 02:07:59;;;;;;;0.10;0.10;;;;;;;;;;4948050;28;20097;-85
2022/04/18 02:10:25;;;;;;;0.10;0.10;;;;;;;;;;4956480;28;20053;-86
2022/04/18 02:12:51;;;;;;;17.03;2.07;;;;;;;;;;4942313;28;20039;-85
2022/04/18 02:15:19;;;;;;;0.10;0.10;;;;;;;;;;4948861;28;20067;-85
2022/04/18 02:17:45;;;;;;;0.32;0.22;;;;;;;;;;4947687;28;20115;-86
2022/04/18 02:20:11;;;;;;;0.30;0.30;;;;;;;;;;4946123;28;20039;-86
2022/04/18 02:22:37;;;;;;;0.00;0.00;;;;;;;;;;4941385;28;20483;-87
2022/04/18 02:25:03;;;;;;;0.40;0.40;;;;;;;;;;4963492;28;20046;-86
2022/04/18 02:27:29;;;;;;;0.20;0.20;;;;;;;;;;4950119;28;20031;-86
2022/04/18 02:29:55;;;;;;;0.00;0.00;;;;;;;;;;4960128;28;20034;-86
2022/04/18 02:35:06;;;;;;;2.08;0.60;;;;;;;;;;4950184;28;20053;-86
2022/04/18 02:37:32;;;;;;;0.00;0.00;;;;;;;;;;4949998;28;20389;-85
2022/04/18 02:39:59;;;;;;;0.00;0.00;;;;;;;;;;4948919;28;21014;-86
2022/04/18 02:42:26;;;;;;;0.10;0.10;;;;;;;;;;4950267;28;20032;-85
2022/04/18 02:44:52;;;;;;;0.05;0.05;;;;;;;;;;4951082;28;20137;-85
2022/04/18 02:47:18;;;;;;;0.10;0.10;;;;;;;;;;4949361;28;20066;-86
2022/04/18 02:49:44;;;;;;;0.13;0.13;;;;;;;;;;4949873;28;20765;-85
2022/04/18 02:52:10;;;;;;;0.00;0.00;;;;;;;;;;4948167;28;20038;-86
2022/04/18 02:54:36;;;;;;;0.20;0.20;;;;;;;;;;4947698;28;20034;-86
2022/04/18 02:57:02;;;;;;;0.25;0.22;;;;;;;;;;4952586;28;20031;-87
2022/04/18 02:59:28;;;;;;;0.35;0.13;;;;;;;;;;4946487;28;20035;-87
2022/04/18 03:01:54;;;;;;;2.43;0.30;;;;;;;;;;4949595;28;20031;-86
2022/04/18 03:04:20;;;;;;;0.00;0.00;;;;;;;;;;4949310;28;20027;-85
2022/04/18 03:06:46;;;;;;;0.20;0.20;;;;;;;;;;4944240;28;20062;-86
2022/04/18 03:09:12;;;;;;;0.45;0.45;;;;;;;;;;4952725;28;20059;-86
2022/04/18 03:11:38;;;;;;;0.10;0.10;;;;;;;;;;4949342;28;20038;-85
2022/04/18 03:14:04;;;;;;;0.00;0.00;;;;;;;;;;4949254;28;20039;-86
2022/04/18 03:16:30;;;;;;;0.50;0.40;;;;;;;;;;4949274;28;20034;-85
2022/04/18 03:18:56;;;;;;;0.30;0.30;;;;;;;;;;4946094;28;20098;-84
2022/04/18 03:21:23;;;;;;;0.40;0.40;;;;;;;;;;4949474;28;20771;-86
2022/04/18 03:23:49;;;;;;;0.10;0.10;;;;;;;;;;4951033;28;20032;-87
2022/04/18 03:26:15;;;;;;;0.57;0.57;;;;;;;;;;4948976;28;20731;-87
2022/04/18 03:28:41;;;;;;;0.10;0.10;;;;;;;;;;4945203;28;20043;-88
2022/04/18 03:31:07;;;;;;;0.05;0.05;;;;;;;;;;4947668;28;20455;-87
2022/04/18 03:33:33;;;;;;;0.25;0.15;;;;;;;;;;4945844;28;20870;-88
2022/04/18 03:41:28;;;;;;;0.05;0.05;;;;;;;;;;4948938;28;20089;-87
2022/04/18 03:43:54;;;;;;;0.30;0.30;;;;;;;;;;4949108;28;20042;-88
2022/04/18 03:46:20;;;;;;;0.20;0.20;;;;;;;;;;4949340;28;20019;-87
2022/04/18 03:48:46;;;;;;;0.10;0.10;;;;;;;;;;4929649;29;20070;-88
2022/04/18 03:51:12;;;;;;;0.17;0.17;;;;;;;;;;4951811;28;20110;-87
2022/04/18 03:53:38;;;;;;;0.05;0.05;;;;;;;;;;4949238;28;20630;-88
2022/04/18 03:56:04;;;;;;;0.20;0.20;;;;;;;;;;4948963;28;20135;-89
2022/04/18 03:58:31;;;;;;;0.40;0.40;;;;;;;;;;4946674;28;20114;-88
2022/04/18 04:00:57;;;;;;;0.13;0.13;;;;;;;;;;4952476;28;20214;-88
2022/04/18 04:03:24;;;;;;;0.63;0.63;;;;;;;;;;4966683;28;20545;-88
2022/04/18 04:05:50;;;;;;;0.47;0.47;;;;;;;;;;4951343;28;20031;-88
2022/04/18 04:08:21;;;;;;;0.20;0.20;;;;;;;;;;4947872;28;20046;-86
2022/04/18 04:10:47;;;;;;;0.00;0.00;;;;;;;;;;4956154;28;20038;-87
2022/04/18 04:13:13;;;;;;;0.93;0.88;;;;;;;;;;4949695;28;20026;-87
2022/04/18 04:15:39;;;;;;;0.00;0.00;;;;;;;;;;4946842;28;20708;-88
2022/04/18 04:18:05;;;;;;;0.10;0.10;;;;;;;;;;4950713;28;20505;-88
2022/04/18 04:20:31;;;;;;;0.00;0.00;;;;;;;;;;4948574;28;20512;-87
2022/04/18 04:22:57;;;;;;;0.10;0.10;;;;;;;;;;4948338;28;20047;-89
2022/04/18 04:25:23;;;;;;;0.00;0.00;;;;;;;;;;4948426;28;20069;-87
2022/04/18 04:27:49;;;;;;;0.20;0.20;;;;;;;;;;4945672;28;20073;-86
2022/04/18 04:30:15;;;;;;;0.70;0.52;;;;;;;;;;4976111;28;20035;-86
2022/04/18 04:32:41;;;;;;;0.30;0.30;;;;;;;;;;4948061;28;20031;-86
2022/04/18 04:35:07;;;;;;;0.00;0.00;;;;;;;;;;4948180;28;20046;-87
2022/04/18 04:37:33;;;;;;;0.28;0.28;;;;;;;;;;4948023;28;20121;-86
2022/04/18 04:39:59;;;;;;;0.00;0.00;;;;;;;;;;4945124;28;20032;-87
2022/04/18 04:42:25;;;;;;;0.32;0.32;;;;;;;;;;4947123;28;20042;-87
2022/04/18 04:44:51;;;;;;;0.20;0.20;;;;;;;;;;4948504;28;20070;-87
2022/04/18 04:47:17;;;;;;;0.10;0.10;;;;;;;;;;4949409;28;20043;-87
2022/04/18 04:49:44;;;;;;;0.00;0.00;;;;;;;;;;4948369;28;20035;-87
2022/04/18 04:52:10;;;;;;;0.20;0.20;;;;;;;;;;4947081;28;20046;-86
2022/04/18 04:54:36;;;;;;;0.00;0.00;;;;;;;;;;4946957;28;20043;-86
2022/04/18 04:57:02;;;;;;;0.33;0.33;;;;;;;;;;4948548;28;20038;-85
2022/04/18 04:59:28;;;;;;;0.10;0.10;;;;;;;;;;4944460;29;20114;-85
2022/04/18 05:01:54;;;;;;;0.30;0.30;;;;;;;;;;4949260;28;20519;-86
2022/04/18 05:04:22;;;;;;;0.00;0.00;;;;;;;;;;4958782;28;20030;-85
2022/04/18 05:06:48;;;;;;;0.50;0.50;;;;;;;;;;4928362;29;20118;-87
2022/04/18 05:09:14;;;;;;;0.40;0.40;;;;;;;;;;4961938;28;20130;-86
2022/04/18 05:11:40;;;;;;;0.05;0.05;;;;;;;;;;4947986;28;20114;-85
2022/04/18 05:14:06;;;;;;;5.45;1.75;;;;;;;;;;4947284;28;20633;-86
2022/04/18 05:16:32;;;;;;;0.00;0.00;;;;;;;;;;4946152;28;20497;-86
2022/04/18 05:18:58;;;;;;;0.17;0.17;;;;;;;;;;4949383;28;20079;-86
2022/04/18 05:21:24;;;;;;;0.00;0.00;;;;;;;;;;4948536;28;20126;-87
2022/04/18 05:23:51;;;;;;;0.10;0.10;;;;;;;;;;4949876;28;20031;-88
2022/04/18 05:26:17;;;;;;;0.20;0.20;;;;;;;;;;4947446;28;20028;-87
2022/04/18 05:28:43;;;;;;;0.00;0.00;;;;;;;;;;4946836;28;20031;-86
2022/04/18 05:31:09;;;;;;;0.33;0.30;;;;;;;;;;4945122;28;20408;-85
2022/04/18 05:33:35;;;;;;;0.00;0.00;;;;;;;;;;4947539;28;20035;-87
2022/04/18 05:36:01;;;;;;;0.47;0.47;;;;;;;;;;4949181;28;20449;-89
2022/04/18 05:38:27;;;;;;;0.00;0.00;;;;;;;;;;4953951;28;20030;-87
2022/04/18 05:40:53;;;;;;;0.30;0.30;;;;;;;;;;4956741;28;20041;-86
2022/04/18 05:43:19;;;;;;;0.50;0.50;;;;;;;;;;4958114;28;20030;-84
2022/04/18 05:45:50;;;;;;;0.10;0.10;;;;;;;;;;4944250;28;20794;-86
2022/04/18 05:48:16;;;;;;;0.10;0.10;;;;;;;;;;4961741;28;20054;-86
2022/04/18 05:50:45;;;;;;;0.52;0.20;;;;;;;;;;4944552;28;20057;-86
2022/04/18 05:53:14;;;;;;;0.00;0.00;;;;;;;;;;4947188;28;20063;-88
2022/04/18 05:55:40;;;;;;;1.88;0.65;;;;;;;;;;4943020;28;20413;-88
2022/04/18 05:58:06;;;;;;;0.22;0.22;;;;;;;;;;4942558;28;20065;-88
2022/04/18 06:00:34;;;;;;;0.10;0.10;;;;;;;;;;4959744;28;20035;-89
2022/04/18 06:03:00;;;;;;;0.00;0.00;;;;;;;;;;4945609;28;20337;-91
2022/04/18 06:05:26;;;;;;;0.10;0.10;;;;;;;;;;4945175;28;20078;-90
2022/04/18 06:07:52;;;;;;;0.03;0.03;;;;;;;;;;4942656;28;20453;-90
2022/04/18 06:10:19;;;;;;;0.10;0.10;;;;;;;;;;4947556;28;20120;-90
2022/04/18 06:12:45;;;;;;;0.08;0.08;;;;;;;;;;4942415;28;20046;-91
2022/04/18 06:15:11;;;;;;;0.10;0.10;;;;;;;;;;4937074;28;20043;-90
2022/04/18 06:17:37;;;;;;;0.10;0.10;;;;;;;;;;4950544;28;20042;-90
2022/04/18 06:20:04;;;;;;;0.13;0.13;;;;;;;;;;4929567;28;20287;-86
2022/04/18 06:22:30;;;;;;;0.10;0.10;;;;;;;;;;4930385;28;20070;-87
2022/04/18 06:24:56;;;;;;;0.00;0.00;;;;;;;;;;4940249;29;20288;-89
2022/04/18 06:27:22;;;;;;;0.10;0.10;;;;;;;;;;4932008;29;20055;-89
2022/04/18 06:29:48;;;;;;;0.47;0.47;;;;;;;;;;4934101;29;20032;-91
2022/04/18 06:32:14;;;;;;;0.00;0.00;;;;;;;;;;4940691;28;20031;-83
2022/04/18 06:34:40;;;;;;;1.33;0.93;;;;;;;;;;4946364;28;20110;-95
2022/04/18 06:37:06;;;;;;;1.20;0.20;;;;;;;;;;4942966;28;20374;-95
2022/04/18 06:39:32;;;;;;;0.20;0.20;;;;;;;;;;4945837;28;20086;-91
2022/04/18 06:42:00;;;;;;;1.00;0.10;;;;;;;;;;4942088;28;20504;-91
2022/04/18 06:44:26;;;;;;;0.40;0.40;;;;;;;;;;4940005;29;20039;-92
2022/04/18 06:46:52;;;;;;;0.50;0.50;;;;;;;;;;4944269;28;20023;-94
2022/04/18 06:49:18;;;;;;;0.10;0.10;;;;;;;;;;4945249;28;20741;-93
2022/04/18 06:51:44;;;;;;;0.10;0.10;;;;;;;;;;4938054;29;20073;-92
2022/04/18 06:54:10;;;;;;;0.10;0.10;;;;;;;;;;4943692;28;20043;-91
2022/04/18 06:59:20;;;;;;;0.38;0.38;;;;;;;;;;4940496;28;20050;-86
2022/04/18 07:01:46;;;;;;;0.13;0.13;;;;;;;;;;4942013;28;20034;-87
2022/04/18 07:04:13;;;;;;;2.67;1.20;;;;;;;;;;4949149;28;20023;-87
2022/04/18 07:06:39;;;;;;;;;;;;;;;;;;4930121;28;20032;-88
2022/04/18 07:09:05;;;;;;;1.33;0.30;;;;;;;;;;4935049;28;19957;-86
2022/04/18 07:11:31;;;;;;;0.30;0.30;;;;;;;;;;4935509;28;20027;-87
2022/04/18 07:13:57;;;;;;;5.18;1.30;;;;;;;;;;4929799;28;20047;-87
2022/04/18 07:16:23;;;;;;;0.10;0.10;;;;;;;;;;4932472;28;20138;-86
2022/04/18 07:18:49;;;;;;;0.10;0.10;;;;;;;;;;4932002;28;20532;-87
2022/04/18 07:21:16;;;;;;;0.13;0.13;;;;;;;;;;4930096;28;20724;-87
2022/04/18 07:23:42;;;;;;;0.53;0.53;;;;;;;;;;4931344;29;20070;-87
2022/04/18 07:26:08;;;;;;;0.38;0.32;;;;;;;;;;4934590;28;20068;-88
2022/04/18 07:28:38;;;;;;;0.03;0.03;;;;;;;;;;4934659;29;20150;-88
2022/04/18 07:31:05;;;;;;;0.28;0.28;;;;;;;;;;4950091;28;20508;-88
2022/04/18 07:33:31;;;;;;;0.10;0.10;;;;;;;;;;4941548;28;20090;-90
2022/04/18 07:35:57;;;;;;;0.65;0.60;;;;;;;;;;4947948;28;20062;-88
2022/04/18 07:41:08;;;;;;;0.20;0.20;;;;;;;;;;4944919;28;20905;-87
2022/04/18 07:43:34;;;;;;;0.77;0.77;;;;;;;;;;4947144;28;20041;-87
2022/04/18 07:46:02;;;;;;;0.00;0.00;;;;;;;;;;4945456;28;20049;-87
2022/04/18 07:48:28;;;;;;;0.38;0.38;;;;;;;;;;4947611;28;20047;-89
2022/04/18 07:53:38;;;;;;;0.20;0.20;;;;;;;;;;4948832;28;20061;-88
2022/04/18 07:56:04;;;;;;;0.20;0.20;;;;;;;;;;4946503;28;20031;-89
2022/04/18 07:58:30;;;;;;;0.10;0.10;;;;;;;;;;4945186;28;20453;-88
2022/04/18 08:00:56;;;;;;;0.63;0.60;;;;;;;;;;4946500;28;20115;-88
2022/04/18 08:03:22;;;;;;;0.17;0.17;;;;;;;;;;4946159;28;20500;-89
2022/04/18 08:05:49;;;;;;;0.30;0.30;;;;;;;;;;4940086;29;20105;-89
2022/04/18 08:08:15;;;;;;;0.28;0.28;;;;;;;;;;4942263;28;20051;-88
2022/04/18 08:10:41;;;;;;;0.00;0.00;;;;;;;;;;4944877;28;20030;-88
2022/04/18 08:13:07;;;;;;;0.45;0.40;;;;;;;;;;4945280;28;20295;-88
2022/04/18 08:15:33;;;;;;;0.30;0.30;;;;;;;;;;4947224;28;20149;-86
2022/04/18 08:17:59;;;;;;;0.20;0.15;;;;;;;;;;4946335;28;20142;-89
2022/04/18 08:20:26;;;;;;;0.20;0.20;;;;;;;;;;4940180;28;20070;-90
2022/04/18 08:22:52;;;;;;;0.13;0.13;;;;;;;;;;4945432;28;20460;-89
2022/04/18 08:25:18;;;;;;;0.33;0.33;;;;;;;;;;4943928;29;20101;-89
2022/04/18 08:27:44;;;;;;;0.10;0.10;;;;;;;;;;4952455;28;20489;-90
2022/04/18 08:30:11;;;;;;;1.40;0.73;;;;;;;;;;4947991;28;20078;-91
2022/04/18 08:32:37;;;;;;;0.10;0.10;;;;;;;;;;4945429;28;20377;-89
2022/04/18 08:35:03;;;;;;;0.57;0.57;;;;;;;;;;4943488;28;20035;-89
2022/04/18 08:37:29;;;;;;;0.50;0.45;;;;;;;;;;4948169;28;20081;-87
2022/04/18 08:39:56;;;;;;;0.60;0.57;;;;;;;;;;4946052;28;20031;-88
2022/04/18 08:42:22;;;;;;;0.10;0.10;;;;;;;;;;4949014;28;20019;-87
2022/04/18 08:44:53;;;;;;;0.20;0.20;;;;;;;;;;4947966;28;20027;-88
2022/04/18 08:52:51;;;;;;;0.43;0.43;;;;;;;;;;4941153;28;20042;-88
2022/04/18 08:55:17;;;;;;;0.10;0.10;;;;;;;;;;4940271;28;20440;-89
2022/04/18 08:57:43;;;;;;;0.93;0.57;;;;;;;;;;4958161;28;20059;-87
2022/04/18 09:00:10;;;;;;;0.20;0.20;;;;;;;;;;4942017;28;21540;-88
2022/04/18 09:02:36;;;;;;;3.50;0.50;;;;;;;;;;4935914;28;20035;-87
2022/04/18 09:05:03;;;;;;;0.10;0.10;;;;;;;;;;4936164;28;20035;-88
2022/04/18 09:07:29;;;;;;;0.50;0.50;;;;;;;;;;4935535;29;20046;-88
2022/04/18 09:09:58;;;;;;;1.50;0.93;;;;;;;;;;4936047;29;20082;-88
2022/04/18 09:12:27;;;;;;;0.28;0.28;;;;;;;;;;4935975;28;20133;-88
2022/04/18 09:14:53;;;;;;;0.30;0.30;;;;;;;;;;4940355;28;20046;-86
2022/04/18 09:17:29;;;;;;;0.60;0.47;;;;;;;;;;4941701;28;20027;-88
2022/04/18 09:20:12;;;;;;;0.88;0.25;;;;;;;;;;4946335;28;20046;-88
2022/04/18 09:22:42;;;;;;;0.65;0.35;;;;;;;;;;4938120;29;20500;-87
2022/04/18 09:25:18;;;;;;;0.40;0.40;;;;;;;;;;4938804;29;20138;-89
2022/04/18 09:27:57;;;;;;;0.20;0.20;;;;;;;;;;4935451;28;20440;-86
2022/04/18 09:30:24;;;;;;;0.28;0.28;;;;;;;;;;4949167;28;20111;-89
2022/04/18 09:32:50;;;;;;;;;;;;;;;;;;4940134;28;20033;-89
2022/04/18 09:35:16;;;;;;;0.20;0.20;;;;;;;;;;4945933;28;19918;-88
2022/04/18 09:37:45;;;;;;;0.95;0.93;;;;;;;;;;4940342;28;20067;-88
2022/04/18 09:40:12;;;;;;;0.30;0.30;;;;;;;;;;4938521;28;20064;-88
2022/04/18 09:42:38;;;;;;;0.30;0.30;;;;;;;;;;4938329;28;20939;-92
2022/04/18 09:45:04;;;;;;;0.20;0.20;;;;;;;;;;4942847;28;20035;-91
2022/04/18 09:47:34;;;;;;;0.20;0.20;;;;;;;;;;4943307;28;20117;-88
2022/04/18 09:50:58;;;;;;;0.55;0.30;;;;;;;;;;4943520;28;20039;-89
2022/04/18 09:53:00;;;;;;;1.15;1.05;;;;;;;;;;4936406;28;20460;-86
2022/04/18 09:55:26;;;;;;;1.17;0.45;;;;;;;;;;4937280;28;20043;-88
2022/04/18 09:57:52;;;;;;;0.65;0.55;;;;;;;;;;4937753;29;20063;-88
2022/04/18 10:00:18;;;;;;;0.40;0.40;;;;;;;;;;4937674;28;20031;-88
2022/04/18 10:02:44;;;;;;;0.00;0.00;;;;;;;;;;4938105;29;20027;-90
2022/04/18 10:05:10;;;;;;;0.15;0.15;;;;;;;;;;4935814;28;20054;-87
2022/04/18 10:07:37;;;;;;;0.55;0.45;;;;;;;;;;4931174;29;20043;-87
2022/04/18 10:10:03;;;;;;;0.17;0.17;;;;;;;;;;4939861;28;20440;-89
2022/04/18 10:12:29;;;;;;;0.20;0.20;;;;;;;;;;4940447;28;20035;-87
2022/04/18 10:14:55;;;;;;;0.10;0.10;;;;;;;;;;4931325;29;20110;-90
2022/04/18 10:17:22;;;;;;;0.52;0.35;;;;;;;;;;4936840;29;20042;-88
2022/04/18 10:20:06;;;;;;;14.32;0.73;;;;;;;;;;4932665;29;20542;-88
2022/04/18 10:22:44;;;;;;;0.98;0.75;;;;;;;;;;4936464;29;20575;-89
2022/04/18 10:25:16;;;;;;;0.20;0.20;;;;;;;;;;4939642;28;20032;-88
2022/04/18 10:28:01;;;;;;;0.20;0.20;;;;;;;;;;4939733;29;20122;-88
2022/04/18 10:30:27;;;;;;;0.30;0.30;;;;;;;;;;4936193;28;20035;-88
2022/04/18 10:32:57;;;;;;;0.30;0.30;;;;;;;;;;4936154;29;20035;-89
2022/04/18 10:35:23;;;;;;;0.10;0.10;;;;;;;;;;4937860;28;20047;-88
2022/04/18 10:37:54;;;;;;;0.20;0.20;;;;;;;;;;4951993;28;20523;-88
2022/04/18 10:40:20;;;;;;;0.38;0.38;;;;;;;;;;4939896;28;20043;-88
2022/04/18 10:42:46;;;;;;;0.20;0.20;;;;;;;;;;4938929;28;20046;-88
2022/04/18 10:45:14;;;;;;;;;;;;;;;;;;4945531;28;20283;-87
2022/04/18 10:47:58;;;;;;;0.00;0.00;;;;;;;;;;4941622;28;19981;-89
2022/04/18 10:50:44;;;;;;;0.30;0.30;;;;;;;;;;4942312;29;20029;-90
2022/04/18 10:53:11;;;;;;;0.10;0.10;;;;;;;;;;4943756;28;20114;-90
2022/04/18 10:55:38;;;;;;;0.38;0.30;;;;;;;;;;4940139;28;20047;-90
2022/04/18 10:58:12;;;;;;;0.40;0.40;;;;;;;;;;4948898;28;20027;-89
2022/04/18 11:00:48;;;;;;;0.20;0.20;;;;;;;;;;4949641;28;20607;-89
2022/04/18 11:03:14;;;;;;;0.20;0.20;;;;;;;;;;4943853;29;20027;-91
2022/04/18 11:05:40;;;;;;;0.40;0.40;;;;;;;;;;4934172;29;20485;-90
2022/04/18 11:08:25;;;;;;;0.73;0.73;;;;;;;;;;4943165;29;20062;-89
2022/04/18 11:10:51;;;;;;;1.27;0.73;;;;;;;;;;4948885;28;20066;-90
2022/04/18 11:13:17;;;;;;;0.23;0.23;;;;;;;;;;4946458;28;20048;-88
2022/04/18 11:15:43;;;;;;;0.03;0.03;;;;;;;;;;4942212;29;20031;-90
2022/04/18 11:18:09;;;;;;;0.37;0.30;;;;;;;;;;4943771;29;20576;-90
2022/04/18 11:20:36;;;;;;;0.45;0.30;;;;;;;;;;4939144;29;20091;-88
2022/04/18 11:23:18;;;;;;;1.00;0.93;;;;;;;;;;4939081;29;20050;-87
2022/04/18 11:25:50;;;;;;;0.28;0.28;;;;;;;;;;4951836;28;20081;-89
2022/04/18 11:28:16;;;;;;;2.15;0.52;;;;;;;;;;4959123;28;20039;-91
2022/04/18 11:30:42;;;;;;;0.45;0.40;;;;;;;;;;4942706;29;20163;-89
2022/04/18 11:33:08;;;;;;;0.45;0.45;;;;;;;;;;4947744;28;20140;-92
2022/04/18 11:35:35;;;;;;;0.20;0.20;;;;;;;;;;4935315;29;20052;-92
2022/04/18 11:38:08;;;;;;;0.60;0.60;;;;;;;;;;4934839;28;20058;-92
2022/04/18 11:40:41;;;;;;;0.50;0.50;;;;;;;;;;4965152;28;20035;-92
2022/04/18 11:43:12;;;;;;;0.30;0.30;;;;;;;;;;4948251;28;20062;-92
2022/04/18 11:45:38;;;;;;;0.22;0.22;;;;;;;;;;4943040;28;20031;-91
2022/04/18 11:48:04;;;;;;;0.25;0.25;;;;;;;;;;4946105;29;20038;-93
2022/04/18 11:50:32;;;;;;;0.10;0.10;;;;;;;;;;4954166;28;20058;-94
2022/04/18 11:53:06;;;;;;;0.38;0.38;;;;;;;;;;4942712;28;20141;-92
2022/04/18 11:55:32;;;;;;;0.32;0.30;;;;;;;;;;4944994;28;20114;-91
2022/04/18 11:57:58;;;;;;;0.20;0.20;;;;;;;;;;4939213;29;20028;-94
2022/04/18 12:08:44;;;;;;;0.60;0.60;;;;;;;;;;4939864;29;20050;-90
2022/04/18 12:11:10;;;;;;;0.20;0.20;;;;;;;;;;4933978;29;20028;-88
2022/04/18 12:13:46;;;;;;;0.20;0.20;;;;;;;;;;4938043;29;20043;-89
2022/04/18 12:16:12;;;;;;;0.32;0.32;;;;;;;;;;4949247;28;20484;-89
2022/04/18 12:18:39;;;;;;;0.47;0.47;;;;;;;;;;4934970;29;20098;-89
2022/04/18 12:21:05;;;;;;;;;;;;;;;;;;4934276;29;20773;-89
2022/04/18 12:23:31;;;;;;;0.55;0.35;;;;;;;;;;4935681;29;19919;-91
2022/04/18 12:25:58;;;;;;;0.60;0.60;;;;;;;;;;4946955;29;20039;-91
2022/04/18 12:28:25;;;;;;;0.32;0.32;;;;;;;;;;4956974;28;20049;-92
2022/04/18 12:30:52;;;;;;;0.30;0.30;;;;;;;;;;4942291;29;20077;-92
2022/04/18 12:33:20;;;;;;;0.30;0.30;;;;;;;;;;4940234;29;20487;-89
2022/04/18 12:35:48;;;;;;;0.10;0.10;;;;;;;;;;4937622;29;20047;-88
2022/04/18 12:38:14;;;;;;;0.52;0.52;;;;;;;;;;4933200;29;20195;-88
2022/04/18 12:40:41;;;;;;;0.88;0.55;;;;;;;;;;4934014;29;20129;-89
2022/04/18 12:43:07;;;;;;;0.82;0.22;;;;;;;;;;4933481;29;20035;-89
2022/04/18 12:45:45;;;;;;;0.23;0.23;;;;;;;;;;4934372;28;20035;-91
2022/04/18 12:48:12;;;;;;;0.95;0.77;;;;;;;;;;4937432;29;20100;-92
2022/04/18 12:50:38;;;;;;;1.15;1.05;;;;;;;;;;4945216;29;20444;-95
2022/04/18 12:53:04;;;;;;;0.17;0.17;;;;;;;;;;4939734;28;20035;-90
2022/04/18 12:55:31;;;;;;;0.40;0.40;;;;;;;;;;4954846;28;20063;-93
2022/04/18 12:57:57;;;;;;;;;;;;;;;;;;4938346;29;20031;-91
2022/04/18 13:00:23;;;;;;;0.20;0.20;;;;;;;;;;4936025;29;19989;-89
2022/04/18 13:03:15;;;;;;;0.20;0.20;;;;;;;;;;4948711;28;20063;-90
2022/04/18 13:05:43;;;;;;;0.30;0.30;;;;;;;;;;4934903;28;20035;-89
2022/04/18 13:08:09;;;;;;;2.10;1.15;;;;;;;;;;4934471;28;20039;-87
2022/04/18 13:10:36;;;;;;;0.30;0.30;;;;;;;;;;4937548;28;20501;-91
2022/04/18 13:13:03;;;;;;;0.28;0.28;;;;;;;;;;4939442;28;20191;-88
2022/04/18 13:15:30;;;;;;;0.00;0.00;;;;;;;;;;4941334;29;20039;-89
2022/04/18 13:17:57;;;;;;;0.68;0.55;;;;;;;;;;4944225;28;20727;-90
2022/04/18 13:20:24;;;;;;;0.22;0.22;;;;;;;;;;4942438;28;20039;-91
2022/04/18 13:22:50;;;;;;;;;;;;;;;;;;4946188;28;20114;-89
2022/04/18 13:25:16;;;;;;;0.32;0.32;;;;;;;;;;4944023;28;20612;-90
2022/04/18 13:27:42;;;;;;;0.20;0.20;;;;;;;;;;4942842;28;20044;-90
2022/04/18 13:30:09;;;;;;;0.25;0.17;;;;;;;;;;4941105;29;20031;-91
2022/04/18 13:32:35;;;;;;;0.10;0.10;;;;;;;;;;4941036;28;20043;-89
2022/04/18 13:35:01;;;;;;;0.25;0.25;;;;;;;;;;4940881;28;20783;-89
2022/04/18 13:37:29;;;;;;;1.15;0.43;;;;;;;;;;4956171;28;20038;-90
2022/04/18 13:39:55;;;;;;;0.70;0.70;;;;;;;;;;4935307;29;20059;-90
2022/04/18 13:42:21;;;;;;;0.28;0.28;;;;;;;;;;4934555;28;20541;-91
2022/04/18 13:44:47;;;;;;;0.52;0.50;;;;;;;;;;4932044;28;20027;-89
2022/04/18 13:47:13;;;;;;;0.25;0.20;;;;;;;;;;4934740;28;20047;-90
2022/04/18 13:49:42;;;;;;;0.43;0.30;;;;;;;;;;4939841;28;20031;-89
2022/04/18 13:52:09;;;;;;;0.08;0.08;;;;;;;;;;4934608;28;20569;-90
2022/04/18 13:54:38;;;;;;;0.35;0.35;;;;;;;;;;4939751;28;20074;-89
2022/04/18 13:57:08;;;;;;;3.47;2.92;;;;;;;;;;4938494;28;20031;-89
2022/04/18 13:59:34;;;;;;;0.20;0.20;;;;;;;;;;4931997;28;20047;-89
2022/04/18 14:02:01;;;;;;;0.20;0.13;;;;;;;;;;4935006;29;20046;-88
2022/04/18 14:04:27;;;;;;;0.35;0.35;;;;;;;;;;4931999;29;20039;-89
2022/04/18 14:06:53;;;;;;;0.10;0.10;;;;;;;;;;4936827;28;20086;-90
2022/04/18 14:09:19;;;;;;;0.10;0.10;;;;;;;;;;4935076;28;20082;-90
2022/04/18 14:11:45;;;;;;;0.65;0.20;;;;;;;;;;4934560;28;20512;-90
2022/04/18 14:20:20;;;;;;;0.00;0.00;;;;;;;;;;4933753;28;20059;-90
2022/04/18 14:22:29;;;;;;;0.10;0.10;;;;;;;;;;4935315;29;20834;-91
2022/04/18 14:24:55;;;;;;;0.90;0.85;;;;;;;;;;4934156;29;20024;-90
2022/04/18 14:27:21;;;;;;;0.00;0.00;;;;;;;;;;4937111;28;20031;-91
2022/04/18 14:29:48;;;;;;;0.67;0.37;;;;;;;;;;4938257;29;20859;-90
2022/04/18 14:32:14;;;;;;;0.10;0.10;;;;;;;;;;4938748;29;20401;-91
2022/04/18 14:34:40;;;;;;;0.30;0.30;;;;;;;;;;4938753;28;20051;-90
2022/04/18 14:37:06;;;;;;;0.55;0.55;;;;;;;;;;4939912;28;20623;-90
2022/04/18 14:39:32;;;;;;;2.90;1.33;;;;;;;;;;4939798;28;20110;-91
2022/04/18 14:41:58;;;;;;;0.00;0.00;;;;;;;;;;4937893;28;20664;-89
2022/04/18 14:44:24;;;;;;;0.17;0.17;;;;;;;;;;4936525;29;20082;-89
2022/04/18 14:46:50;;;;;;;0.20;0.07;;;;;;;;;;4936067;28;20287;-88
2022/04/18 14:49:17;;;;;;;0.20;0.20;;;;;;;;;;4936206;28;20282;-89
2022/04/18 14:51:43;;;;;;;0.30;0.30;;;;;;;;;;4937071;29;20362;-89
2022/04/18 14:54:10;;;;;;;;;;;;;;;;;;4941061;28;20294;-89
2022/04/18 14:56:36;;;;;;;0.32;0.32;;;;;;;;;;4934086;28;19925;-90
2022/04/18 14:59:02;;;;;;;0.60;0.30;;;;;;;;;;4941095;28;20047;-92
2022/04/18 15:01:28;;;;;;;0.05;0.05;;;;;;;;;;4937462;28;20294;-90
2022/04/18 15:03:55;;;;;;;0.20;0.20;;;;;;;;;;4933868;28;20536;-90
2022/04/18 15:06:21;;;;;;;0.03;0.03;;;;;;;;;;4936114;28;20027;-90
2022/04/18 15:08:47;;;;;;;0.10;0.10;;;;;;;;;;4936376;28;20035;-94
2022/04/18 15:11:13;;;;;;;0.63;0.50;;;;;;;;;;4941985;29;20042;-95
2022/04/18 15:13:39;;;;;;;0.10;0.10;;;;;;;;;;4940461;28;20045;-92
2022/04/18 15:16:06;;;;;;;0.60;0.32;;;;;;;;;;4941618;28;20036;-91
2022/04/18 15:18:32;;;;;;;;;;;;;;;;;;4941649;29;20047;-94
2022/04/18 15:20:58;;;;;;;0.22;0.22;;;;;;;;;;4942201;28;19914;-93
2022/04/18 15:23:24;;;;;;;0.13;0.13;;;;;;;;;;4943535;28;20027;-94
2022/04/18 15:25:50;;;;;;;0.15;0.15;;;;;;;;;;4942071;28;20133;-94